sensor_id;sensor_type;location;lat;lon;timestamp;pressure;altitude;pressure_sealevel;temperature
77385;BMP280;66444;49.680;18.538;2023-11-21T00:01:53;96525.81967540296;;;9.87129594250582
77385;BMP280;66444;49.680;18.538;2023-11-21T00:06:55;96515.96338558893;;;9.876383847231045
77385;BMP280;66444;49.680;18.538;2023-11-21T00:11:58;96522.80723916962;;;9.886559639219195
77385;BMP280;66444;49.680;18.538;2023-11-21T00:17:09;96524.33980084032;;;9.896735407924279
77385;BMP280;66444;49.680;18.538;2023-11-21T00:22:11;96533.07339315185;;;9.901823283545673
77385;BMP280;66444;49.680;18.538;2023-11-21T00:27:13;96534.24929653209;;;9.927262574341148
77385;BMP280;66444;49.680;18.538;2023-11-21T00:32:15;96542.6266271532;;;9.947613902203738
77385;BMP280;66444;49.680;18.538;2023-11-21T00:37:17;96543.44551681452;;;9.988316278532148
77385;BMP280;66444;49.680;18.538;2023-11-21T00:42:18;96548.75783535681;;;9.988316278532148
77385;BMP280;66444;49.680;18.538;2023-11-21T00:47:20;96556.06485961081;;;10.05445684553124
77385;BMP280;66444;49.680;18.538;2023-11-21T00:52:22;96544.26381446519;;;10.029018282331526
77385;BMP280;66444;49.680;18.538;2023-11-21T00:57:24;96543.5489162825;;;10.059544540708885
77385;BMP280;66444;49.680;18.538;2023-11-21T01:02:26;96539.66584790709;;;9.998491814406588
77385;BMP280;66444;49.680;18.538;2023-11-21T01:07:27;96538.84737148134;;;9.957789531210437
77385;BMP280;66444;49.680;18.538;2023-11-21T01:12:29;96537.31467200904;;;9.947613902203738
77385;BMP280;66444;49.680;18.538;2023-11-21T01:17:31;96528.17123926754;;;9.922174727823585
77385;BMP280;66444;49.680;18.538;2023-11-21T01:22:33;96538.02830313101;;;9.917086875485257
77385;BMP280;66444;49.680;18.538;2023-11-21T01:27:36;96529.65129200948;;;9.896735407924279
77385;BMP280;66444;49.680;18.538;2023-11-21T01:32:38;96540.27430356102;;;9.896735407924279
77385;BMP280;66444;49.680;18.538;2023-11-21T01:37:40;96534.14301372635;;;9.856032193405554
77385;BMP280;66444;49.680;18.538;2023-11-21T01:42:42;96534.14301372635;;;9.856032193405554
77385;BMP280;66444;49.680;18.538;2023-11-21T01:47:44;96540.98707227681;;;9.866208031959832
77385;BMP280;66444;49.680;18.538;2023-11-21T01:52:46;96550.0765139305;;;9.856032193405554
77385;BMP280;66444;49.680;18.538;2023-11-21T01:57:49;96535.6758244332;;;9.866208031959832
77385;BMP280;66444;49.680;18.538;2023-11-21T02:02:51;96540.57681373785;;;9.84585633156821
77385;BMP280;66444;49.680;18.538;2023-11-21T02:07:54;96552.37614173518;;;9.87129594250582
77385;BMP280;66444;49.680;18.538;2023-11-21T02:12:57;96559.52125610715;;;9.830592495156452
77385;BMP280;66444;49.680;18.538;2023-11-21T02:18:00;96551.60959717432;;;9.866208031959832
77385;BMP280;66444;49.680;18.538;2023-11-21T02:23:02;96540.57681373785;;;9.84585633156821
77385;BMP280;66444;49.680;18.538;2023-11-21T02:28:04;96538.74146935213;;;9.886559639219195
77385;BMP280;66444;49.680;18.538;2023-11-21T02:33:05;96542.51998166504;;;9.876383847231045
77385;BMP280;66444;49.680;18.538;2023-11-21T02:38:07;96544.05289888778;;;9.886559639219195
77385;BMP280;66444;49.680;18.538;2023-11-21T02:43:09;96542.51998166504;;;9.876383847231045
77385;BMP280;66444;49.680;18.538;2023-11-21T02:48:11;96553.96340936255;;;9.917086875485257
77385;BMP280;66444;49.680;18.538;2023-11-21T02:53:18;96566.83200285016;;;9.896735407924279
77385;BMP280;66444;49.680;18.538;2023-11-21T02:58:21;96566.83200285016;;;9.896735407924279
77385;BMP280;66444;49.680;18.538;2023-11-21T03:03:29;96557.6874642124;;;9.87129594250582
77385;BMP280;66444;49.680;18.538;2023-11-21T03:08:41;96567.5434575463;;;9.866208031959832
77385;BMP280;66444;49.680;18.538;2023-11-21T03:13:53;96566.01010176261;;;9.856032193405554
77385;BMP280;66444;49.680;18.538;2023-11-21T03:18:55;96559.16563898491;;;9.84585633156821
77385;BMP280;66444;49.680;18.538;2023-11-21T03:23:57;96550.78822490826;;;9.825504538044333
77385;BMP280;66444;49.680;18.538;2023-11-21T03:28:59;96557.63238972871;;;9.835680446447805
77385;BMP280;66444;49.680;18.538;2023-11-21T03:34:03;96556.09914831519;;;9.825504538044333
77385;BMP280;66444;49.680;18.538;2023-11-21T03:39:10;96557.93211941689;;;9.784800671599806
77385;BMP280;66444;49.680;18.538;2023-11-21T03:44:13;96555.22060122213;;;9.749184482870623
77385;BMP280;66444;49.680;18.538;2023-11-21T03:49:15;96551.44361305889;;;9.759360565897078
77385;BMP280;66444;49.680;18.538;2023-11-21T03:54:17;96555.27683088418;;;9.784800671599806
77385;BMP280;66444;49.680;18.538;2023-11-21T03:59:19;96553.79930090338;;;9.810240631783381
77385;BMP280;66444;49.680;18.538;2023-11-21T04:04:22;96556.86576804155;;;9.830592495156452
77385;BMP280;66444;49.680;18.538;2023-11-21T04:09:24;96558.75461366947;;;9.825504538044333
77385;BMP280;66444;49.680;18.538;2023-11-21T04:14:26;96558.45405615575;;;9.876383847231045
77385;BMP280;66444;49.680;18.538;2023-11-21T04:19:33;96559.98724591918;;;9.886559639219195
77385;BMP280;66444;49.680;18.538;2023-11-21T04:24:36;96554.6757871713;;;9.886559639219195
77385;BMP280;66444;49.680;18.538;2023-11-21T04:29:38;96568.36529912906;;;9.9069111533463
77385;BMP280;66444;49.680;18.538;2023-11-21T04:34:45;96565.29871440447;;;9.886559639219195
77385;BMP280;66444;49.680;18.538;2023-11-21T04:39:52;96563.7654337935;;;9.876383847231045
77385;BMP280;66444;49.680;18.538;2023-11-21T04:44:54;96569.07682116832;;;9.876383847231045
77385;BMP280;66444;49.680;18.538;2023-11-21T04:49:56;96568.66570825403;;;9.856032193405554
77385;BMP280;66444;49.680;18.538;2023-11-21T04:54:58;96575.09901269524;;;9.84585633156821
77385;BMP280;66444;49.680;18.538;2023-11-21T05:00:00;96581.53207434398;;;9.835680446447805
77385;BMP280;66444;49.680;18.538;2023-11-21T05:05:05;96587.84932856928;;;9.754272527294233
77385;BMP280;66444;49.680;18.538;2023-11-21T05:10:08;96586.31542321004;;;9.744096432626247
77385;BMP280;66444;49.680;18.538;2023-11-21T05:15:15;96589.32472790213;;;9.728832246968523
77385;BMP280;66444;49.680;18.538;2023-11-21T05:20:18;96599.17797298217;;;9.723744173441082
77385;BMP280;66444;49.680;18.538;2023-11-21T05:25:19;96599.94505308314;;;9.728832246968523
77385;BMP280;66444;49.680;18.538;2023-11-21T05:30:21;96598.35117137099;;;9.68303937567398
77385;BMP280;66444;49.680;18.538;2023-11-21T05:35:23;96591.44727187639;;;9.637246032897384
77385;BMP280;66444;49.680;18.538;2023-11-21T05:40:25;96604.36757491408;;;9.652510532876477
77385;BMP280;66444;49.680;18.538;2023-11-21T05:45:26;96610.79735816184;;;9.642334205377846
77385;BMP280;66444;49.680;18.538;2023-11-21T05:50:28;96598.9360275271;;;9.581275751441718
77385;BMP280;66444;49.680;18.538;2023-11-21T05:55:30;96614.86275342124;;;9.581275751441718
77385;BMP280;66444;49.680;18.538;2023-11-21T06:00:32;96620.93906983439;;;9.586363987950609
77385;BMP280;66444;49.680;18.538;2023-11-21T06:05:34;96616.39744120608;;;9.591452218638732
77385;BMP280;66444;49.680;18.538;2023-11-21T06:10:36;96623.24124664773;;;9.601628662552685
77385;BMP280;66444;49.680;18.538;2023-11-21T06:15:37;96632.03521178459;;;9.642334205377846
77385;BMP280;66444;49.680;18.538;2023-11-21T06:20:39;96644.6044935437;;;9.672863118024543
77385;BMP280;66444;49.680;18.538;2023-11-21T06:25:41;96640.12441855641;;;9.713568008923904
77385;BMP280;66444;49.680;18.538;2023-11-21T06:30:43;96644.72908535367;;;9.744096432626247
77385;BMP280;66444;49.680;18.538;2023-11-21T06:35:45;96648.56636176312;;;9.769536625640466
77385;BMP280;66444;49.680;18.538;2023-11-21T06:40:48;96653.93863127884;;;9.805152651388198
77385;BMP280;66444;49.680;18.538;2023-11-21T06:45:49;96655.47358310559;;;9.815328606357799
77385;BMP280;66444;49.680;18.538;2023-11-21T06:50:51;96666.92485961551;;;9.856032193405554
77385;BMP280;66444;49.680;18.538;2023-11-21T06:55:53;96670.53023531038;;;9.967965136934072
77385;BMP280;66444;49.680;18.538;2023-11-21T07:00:55;96669.28850281297;;;9.9069111533463
77385;BMP280;66444;49.680;18.538;2023-11-21T07:05:57;96670.82353311437;;;9.917086875485257
77385;BMP280;66444;49.680;18.538;2023-11-21T07:10:58;96667.87405122683;;;9.967965136934072
77385;BMP280;66444;49.680;18.538;2023-11-21T07:16:00;96660.4357373507;;;10.059544540708885
77385;BMP280;66444;49.680;18.538;2023-11-21T07:21:03;96654.52597970827;;;10.161297221900895
77385;BMP280;66444;49.680;18.538;2023-11-21T07:26:05;96668.33511446771;;;10.2528726442717
77385;BMP280;66444;49.680;18.538;2023-11-21T07:31:07;96670.69184705164;;;10.303747064014896
77385;BMP280;66444;49.680;18.538;2023-11-21T07:36:09;96660.88235859248;;;10.344446180714295
77385;BMP280;66444;49.680;18.538;2023-11-21T07:41:11;96662.11281435024;;;10.405494157271459
77385;BMP280;66444;49.680;18.538;2023-11-21T07:46:13;96666.30493564201;;;10.415668738540262
77385;BMP280;66444;49.680;18.538;2023-11-21T07:51:16;96675.09951229717;;;10.456366830784827
77385;BMP280;66444;49.680;18.538;2023-11-21T07:56:17;96680.71936876544;;;10.405494157271459
77385;BMP280;66444;49.680;18.538;2023-11-21T08:01:20;96682.30729941031;;;10.451279589626939
77385;BMP280;66444;49.680;18.538;2023-11-21T08:06:23;96676.63364589444;;;10.466541295638308
77385;BMP280;66444;49.680;18.538;2023-11-21T08:11:25;96682.05547029074;;;10.537761897686869
77385;BMP280;66444;49.680;18.538;2023-11-21T08:16:26;96687.06718349589;;;10.588633057801053
77385;BMP280;66444;49.680;18.538;2023-11-21T08:21:28;96687.88549038072;;;10.629329566797242
77385;BMP280;66444;49.680;18.538;2023-11-21T08:26:30;96700.05598152701;;;10.639503635838627
77385;BMP280;66444;49.680;18.538;2023-11-21T08:31:31;96700.77131444207;;;10.608981358865275
77385;BMP280;66444;49.680;18.538;2023-11-21T08:36:33;96702.30560950935;;;10.619155474472791
77385;BMP280;66444;49.680;18.538;2023-11-21T08:41:35;96705.06785123129;;;10.690373631799593
77385;BMP280;66444;49.680;18.538;2023-11-21T08:46:37;96709.36272224221;;;10.771764414617792
77385;BMP280;66444;49.680;18.538;2023-11-21T08:51:38;96704.2382305842;;;10.914194698957726
77385;BMP280;66444;49.680;18.538;2023-11-21T08:56:40;96715.83520434216;;;11.06170696830377
77385;BMP280;66444;49.680;18.538;2023-11-21T09:01:44;96725.89490377245;;;11.199041577195748
77385;BMP280;66444;49.680;18.538;2023-11-21T09:06:46;96725.2163432235;;;11.265164134744555
77385;BMP280;66444;49.680;18.538;2023-11-21T09:11:47;96725.34473542067;;;11.371975418925285
77385;BMP280;66444;49.680;18.538;2023-11-21T09:16:54;96723.97539602873;;;11.504214404756203
77385;BMP280;66444;49.680;18.538;2023-11-21T09:21:56;96724.82064632236;;;11.58050433746539
77385;BMP280;66444;49.680;18.538;2023-11-21T09:27:03;96722.55991572866;;;11.600848098332062
77385;BMP280;66444;49.680;18.538;2023-11-21T09:32:05;96722.67268068522;;;11.70765131493099
77385;BMP280;66444;49.680;18.538;2023-11-21T09:37:07;96726.54071551567;;;11.768680571904406
77385;BMP280;66444;49.680;18.538;2023-11-21T09:42:10;96720.4819443166;;;11.799194886069746
77385;BMP280;66444;49.680;18.538;2023-11-21T09:47:14;96727.01238706589;;;11.860222885757684
77385;BMP280;66444;49.680;18.538;2023-11-21T09:52:19;96720.55143648278;;;11.870394137548283
77385;BMP280;66444;49.680;18.538;2023-11-21T09:57:26;96723.07416484608;;;11.727994493721052
77385;BMP280;66444;49.680;18.538;2023-11-21T10:02:29;96726.46746424254;;;11.697479690611363
77385;BMP280;66444;49.680;18.538;2023-11-21T10:07:35;96726.54071551567;;;11.768680571904406
77385;BMP280;66444;49.680;18.538;2023-11-21T10:12:37;96725.88037412232;;;11.870394137548283
77385;BMP280;66444;49.680;18.538;2023-11-21T10:17:44;96733.64274035899;;;12.028045562980697
77385;BMP280;66444;49.680;18.538;2023-11-21T10:22:54;96734.04202692988;;;12.048387274937705
77385;BMP280;66444;49.680;18.538;2023-11-21T10:27:57;96733.5425572156;;;11.921250047255308
77385;BMP280;66444;49.680;18.538;2023-11-21T10:33:10;96719.75076286253;;;11.829708990687504
77385;BMP280;66444;49.680;18.538;2023-11-21T10:38:13;96730.47766145371;;;11.900907753221691
77385;BMP280;66444;49.680;18.538;2023-11-21T10:43:15;96734.67475993377;;;11.91107891188003
77385;BMP280;66444;49.680;18.538;2023-11-21T10:48:17;96723.68320017633;;;11.961934355925768
77385;BMP280;66444;49.680;18.538;2023-11-21T10:53:19;96725.9483445128;;;11.941592248156667
77385;BMP280;66444;49.680;18.538;2023-11-21T10:58:29;96724.41605973184;;;11.931421159347519
77385;BMP280;66444;49.680;18.538;2023-11-21T11:03:31;96718.21837884076;;;11.81953764576465
77385;BMP280;66444;49.680;18.538;2023-11-21T11:08:36;96722.74518598776;;;11.778852033242583
77385;BMP280;66444;49.680;18.538;2023-11-21T11:13:44;96717.55440977469;;;11.921250047255308
77385;BMP280;66444;49.680;18.538;2023-11-21T11:18:46;96726.81233681513;;;12.053472688375042
77385;BMP280;66444;49.680;18.538;2023-11-21T11:23:52;96714.95489161233;;;11.992447342956439
77385;BMP280;66444;49.680;18.538;2023-11-21T11:29:23;96725.88037412232;;;11.870394137548283
77385;BMP280;66444;49.680;18.538;2023-11-21T11:34:36;96721.97892092125;;;11.773766305483878
77385;BMP280;66444;49.680;18.538;2023-11-21T11:39:45;96722.59803820582;;;11.636449455749243
77385;BMP280;66444;49.680;18.538;2023-11-21T11:44:48;96721.63553093607;;;11.453353722020983
77385;BMP280;66444;49.680;18.538;2023-11-21T11:49:56;96724.7017631215;;;11.473698064964264
77385;BMP280;66444;49.680;18.538;2023-11-21T11:55:06;96725.73801801169;;;11.727994493721052
77385;BMP280;66444;49.680;18.538;2023-11-21T12:00:14;96717.41704708234;;;11.778852033242583
77385;BMP280;66444;49.680;18.538;2023-11-21T12:05:18;96716.7206426703;;;11.844965964416042
77385;BMP280;66444;49.680;18.538;2023-11-21T12:10:22;96712.75091416616;;;12.083985046762972
77385;BMP280;66444;49.680;18.538;2023-11-21T12:15:25;96710.65455894516;;;12.317906166100874
77385;BMP280;66444;49.680;18.538;2023-11-21T12:20:28;96710.31147934489;;;12.368756953533738
77385;BMP280;66444;49.680;18.538;2023-11-21T12:25:35;96714.87905238371;;;12.3636719009839
77385;BMP280;66444;49.680;18.538;2023-11-21T12:30:42;96711.05076267273;;;12.338246550923213
77385;BMP280;66444;49.680;18.538;2023-11-21T12:35:44;96717.0663839583;;;12.236543695488944
77385;BMP280;66444;49.680;18.538;2023-11-21T12:40:46;96719.61358479765;;;12.094155786326155
77385;BMP280;66444;49.680;18.538;2023-11-21T12:45:50;96726.81233681513;;;12.053472688375042
77385;BMP280;66444;49.680;18.538;2023-11-21T12:50:52;96716.82135566264;;;11.95176331368275
77385;BMP280;66444;49.680;18.538;2023-11-21T12:55:55;96726.21112172527;;;11.81953764576465
77385;BMP280;66444;49.680;18.538;2023-11-21T13:00:57;96735.62702708262;;;11.722908707754687
77385;BMP280;66444;49.680;18.538;2023-11-21T13:06:01;96735.35279142919;;;11.473698064964264
77385;BMP280;66444;49.680;18.538;2023-11-21T13:11:04;96735.99400419691;;;11.371975418925285
77385;BMP280;66444;49.680;18.538;2023-11-21T13:16:07;96737.44134393109;;;11.310940713714809
77385;BMP280;66444;49.680;18.538;2023-11-21T13:21:09;96744.9321840474;;;11.219387084292247
77385;BMP280;66444;49.680;18.538;2023-11-21T13:26:11;96741.67784039941;;;11.056620419817046
77385;BMP280;66444;49.680;18.538;2023-11-21T13:31:13;96742.29956167721;;;10.954888227721677
77385;BMP280;66444;49.680;18.538;2023-11-21T13:36:16;96742.19998729111;;;10.883674307912589
77385;BMP280;66444;49.680;18.538;2023-11-21T13:41:19;96737.59652431679;;;10.853153707319871
77385;BMP280;66444;49.680;18.538;2023-11-21T13:46:21;96742.04663295738;;;10.776851289067418
77385;BMP280;66444;49.680;18.538;2023-11-21T13:51:23;96735.03512867464;;;10.659851704072207
77385;BMP280;66444;49.680;18.538;2023-11-21T13:56:30;96745.67210168215;;;10.659851704072207
77385;BMP280;66444;49.680;18.538;2023-11-21T14:01:32;96750.16858440112;;;10.619155474472791
77385;BMP280;66444;49.680;18.538;2023-11-21T14:06:34;96759.26961361911;;;10.608981358865275
77385;BMP280;66444;49.680;18.538;2023-11-21T14:11:37;96760.80490841108;;;10.619155474472791
77385;BMP280;66444;49.680;18.538;2023-11-21T14:16:38;96762.93963901183;;;10.52758759581484
77385;BMP280;66444;49.680;18.538;2023-11-21T14:21:40;96763.65028411125;;;10.497064550500363
77385;BMP280;66444;49.680;18.538;2023-11-21T14:26:43;96773.57442469281;;;10.52758759581484
77385;BMP280;66444;49.680;18.538;2023-11-21T14:31:46;96773.21919034558;;;10.542849039891735
77385;BMP280;66444;49.680;18.538;2023-11-21T14:36:48;96777.35606170309;;;10.517413270659745
77385;BMP280;66444;49.680;18.538;2023-11-21T14:41:50;96774.16750286956;;;10.425843296526
77385;BMP280;66444;49.680;18.538;2023-11-21T14:46:53;96787.75255970866;;;10.374970273766667
77385;BMP280;66444;49.680;18.538;2023-11-21T14:51:55;96796.01864431331;;;10.324096668930725
77385;BMP280;66444;49.680;18.538;2023-11-21T14:56:59;96803.45056311387;;;10.232522713392973
77385;BMP280;66444;49.680;18.538;2023-11-21T15:02:01;96814.65374545833;;;10.130771662015468
77385;BMP280;66444;49.680;18.538;2023-11-21T15:07:04;96820.95380994983;;;10.049369144532829
77385;BMP280;66444;49.680;18.538;2023-11-21T15:12:08;96815.0866779183;;;9.957789531210437
77385;BMP280;66444;49.680;18.538;2023-11-21T15:17:15;96825.85126964876;;;9.835680446447805
77385;BMP280;66444;49.680;18.538;2023-11-21T15:22:17;96819.97713786332;;;9.744096432626247
77385;BMP280;66444;49.680;18.538;2023-11-21T15:27:20;96830.52575277102;;;9.708479917934165
77385;BMP280;66444;49.680;18.538;2023-11-21T15:32:22;96827.10149634242;;;9.70339182112366
77385;BMP280;66444;49.680;18.538;2023-11-21T15:37:24;96823.74986457087;;;9.733920314675197
77385;BMP280;66444;49.680;18.538;2023-11-21T15:42:26;96825.28785036822;;;9.744096432626247
77385;BMP280;66444;49.680;18.538;2023-11-21T15:47:28;96827.66673074162;;;9.794976673135533
77385;BMP280;66444;49.680;18.538;2023-11-21T15:52:30;96827.66673074162;;;9.794976673135533
77385;BMP280;66444;49.680;18.538;2023-11-21T15:57:32;96832.55735123367;;;9.774624646781012
77385;BMP280;66444;49.680;18.538;2023-11-21T16:02:34;96837.86835091666;;;9.774624646781012
77385;BMP280;66444;49.680;18.538;2023-11-21T16:07:36;96844.29658667468;;;9.764448598679156
77385;BMP280;66444;49.680;18.538;2023-11-21T16:12:38;96845.83486869217;;;9.774624646781012
77385;BMP280;66444;49.680;18.538;2023-11-21T16:17:40;96848.76468658519;;;9.723744173441082
77385;BMP280;66444;49.680;18.538;2023-11-21T16:22:43;96855.53937437665;;;9.698303718492388
77385;BMP280;66444;49.680;18.538;2023-11-21T16:27:50;96865.3151598805;;;9.657598687894643
77385;BMP280;66444;49.680;18.538;2023-11-21T16:32:52;96865.93184680305;;;9.591452218638732
77385;BMP280;66444;49.680;18.538;2023-11-21T16:37:54;96862.8539394641;;;9.571099260961637
77385;BMP280;66444;49.680;18.538;2023-11-21T16:42:57;96869.70227446748;;;9.581275751441718
77385;BMP280;66444;49.680;18.538;2023-11-21T16:47:59;96871.93341455306;;;9.560922747198493
77385;BMP280;66444;49.680;18.538;2023-11-21T16:53:01;96881.78222070904;;;9.555834481585771
77385;BMP280;66444;49.680;18.538;2023-11-21T16:58:04;96876.39472866236;;;9.52021645931527
77385;BMP280;66444;49.680;18.538;2023-11-21T17:03:07;96890.78185687342;;;9.510039829136804
77385;BMP280;66444;49.680;18.538;2023-11-21T17:08:09;96891.55162497159;;;9.51512814713642
77385;BMP280;66444;49.680;18.538;2023-11-21T17:13:11;96897.5502363552;;;9.484598151827232
77385;BMP280;66444;49.680;18.538;2023-11-21T17:18:13;96898.32008539632;;;9.489686498930677
77385;BMP280;66444;49.680;18.538;2023-11-21T17:23:15;96898.32008539632;;;9.489686498930677
77385;BMP280;66444;49.680;18.538;2023-11-21T17:28:17;96894.55105316178;;;9.499863175675273
77385;BMP280;66444;49.680;18.538;2023-11-21T17:33:24;96893.78124558245;;;9.494774840213358
77385;BMP280;66444;49.680;18.538;2023-11-21T17:38:32;96895.24070113005;;;9.469333075592294
77385;BMP280;66444;49.680;18.538;2023-11-21T17:43:34;96891.39151542741;;;9.443891165452078
77385;BMP280;66444;49.680;18.538;2023-11-21T17:48:36;96889.08202781805;;;9.428625949518755
77385;BMP280;66444;49.680;18.538;2023-11-21T17:53:38;96901.9265529223;;;9.4082722467836
77385;BMP280;66444;49.680;18.538;2023-11-21T17:58:41;96892.42486605165;;;9.398095360491425
77385;BMP280;66444;49.680;18.538;2023-11-21T18:03:44;96916.04873792945;;;9.448979559121653
77385;BMP280;66444;49.680;18.538;2023-11-21T18:08:47;96902.35232109996;;;9.428625949518755
77385;BMP280;66444;49.680;18.538;2023-11-21T18:13:54;96917.85045454717;;;9.4082722467836
77385;BMP280;66444;49.680;18.538;2023-11-21T18:18:58;96915.45717793844;;;9.357387582492084
77385;BMP280;66444;49.680;18.538;2023-11-21T18:24:01;96919.22440041263;;;9.347210579784587
77385;BMP280;66444;49.680;18.538;2023-11-21T18:29:03;96925.21787582796;;;9.316679431963712
77385;BMP280;66444;49.680;18.538;2023-11-21T18:34:06;96925.0479102036;;;9.245439272141084
77385;BMP280;66444;49.680;18.538;2023-11-21T18:39:08;96922.99318759302;;;9.179286673618481
77385;BMP280;66444;49.680;18.538;2023-11-21T18:44:10;96922.04896178783;;;9.102955529885367
77385;BMP280;66444;49.680;18.538;2023-11-21T18:49:14;96923.93121287438;;;9.097866740403697
77385;BMP280;66444;49.680;18.538;2023-11-21T18:54:20;96926.15466626242;;;9.077511524269358
77385;BMP280;66444;49.680;18.538;2023-11-21T18:59:28;96925.38420635958;;;9.072422705683858
77385;BMP280;66444;49.680;18.538;2023-11-21T19:04:32;96931.53248712614;;;8.955378271685912
77385;BMP280;66444;49.680;18.538;2023-11-21T19:09:40;96955.61279630907;;;8.74672620901838
77385;BMP280;66444;49.680;18.538;2023-11-21T19:14:57;96956.96439047766;;;8.685655461624265
77385;BMP280;66444;49.680;18.538;2023-11-21T19:19:59;96967.85095482449;;;8.512617125501857
77385;BMP280;66444;49.680;18.538;2023-11-21T19:25:03;96987.58533630302;;;8.135981016512961
77385;BMP280;66444;49.680;18.538;2023-11-21T19:30:06;96998.19224456977;;;7.769493667874485
77385;BMP280;66444;49.680;18.538;2023-11-21T19:35:10;97007.92734394202;;;7.275706057716161
77385;BMP280;66444;49.680;18.538;2023-11-21T19:40:18;97018.54818918316;;;7.066975240083411
77385;BMP280;66444;49.680;18.538;2023-11-21T19:45:21;97036.29921317886;;;6.853143281303346
77385;BMP280;66444;49.680;18.538;2023-11-21T19:50:23;97062.13282934406;;;6.588384725432843
77385;BMP280;66444;49.680;18.538;2023-11-21T19:55:31;97055.40428378774;;;6.405081120505929
77385;BMP280;66444;49.680;18.538;2023-11-21T20:00:33;97069.78838250836;;;6.221769971866161
77385;BMP280;66444;49.680;18.538;2023-11-21T20:05:45;97082.88492649363;;;6.099558348488062
77385;BMP280;66444;49.680;18.538;2023-11-21T20:10:48;97094.29989556341;;;5.844940031366423
77385;BMP280;66444;49.680;18.538;2023-11-21T20:15:56;97106.27586145292;;;5.732903361786157
77385;BMP280;66444;49.680;18.538;2023-11-21T20:20:58;97114.97959448992;;;5.651420378033071
77385;BMP280;66444;49.680;18.538;2023-11-21T20:26:00;97132.6778700783;;;5.559750240156427
77385;BMP280;66444;49.680;18.538;2023-11-21T20:31:04;97145.09303152091;;;5.468078216351569
77385;BMP280;66444;49.680;18.538;2023-11-21T20:36:06;97145.09303152091;;;5.468078216351569
77385;BMP280;66444;49.680;18.538;2023-11-21T20:41:08;97163.24089462186;;;5.39677644954063
77385;BMP280;66444;49.680;18.538;2023-11-21T20:46:11;97158.73815430012;;;5.315287319058553
77385;BMP280;66444;49.680;18.538;2023-11-21T20:51:13;97168.04816034061;;;5.376404306618497
77385;BMP280;66444;49.680;18.538;2023-11-21T20:56:15;97175.491658622;;;5.3560320705641065
77385;BMP280;66444;49.680;18.538;2023-11-21T21:01:18;97177.19392894713;;;5.315287319058553
77385;BMP280;66444;49.680;18.538;2023-11-21T21:06:21;97197.34994345543;;;5.274542195023969
77385;BMP280;66444;49.680;18.538;2023-11-21T21:11:25;97197.81823727477;;;5.294914803607389
77385;BMP280;66444;49.680;18.538;2023-11-21T21:16:28;97209.59402058728;;;5.233796698460355
77385;BMP280;66444;49.680;18.538;2023-11-21T21:21:31;97221.69178864334;;;5.243983107525855
77385;BMP280;66444;49.680;18.538;2023-11-21T21:26:41;97228.1909323411;;;5.18286430388689
77385;BMP280;66444;49.680;18.538;2023-11-21T21:31:44;97230.3062577246;;;4.989315895969048
77385;BMP280;66444;49.680;18.538;2023-11-21T21:36:48;97247.13026965276;;;4.805946493102238
77385;BMP280;66444;49.680;18.538;2023-11-21T21:41:51;97250.63270245974;;;4.673508343938738
77385;BMP280;66444;49.680;18.538;2023-11-21T21:46:54;97264.78447297307;;;4.490125949122012
77385;BMP280;66444;49.680;18.538;2023-11-21T21:57:01;97286.33144511646;;;4.286358885094524
77385;BMP280;66444;49.680;18.538;2023-11-21T22:02:06;97292.30947066189;;;4.204849451780319
77385;BMP280;66444;49.680;18.538;2023-11-21T22:07:09;97287.16170935368;;;4.15390529925935